sensor_id;sensor_type;location;lat;lon;timestamp;P1;durP1;ratioP1;P2;durP2;ratioP2
76157;SDS011;64907;51.574;6.502;2023-05-10T00:00:26;49.40;;;25.70;;
76157;SDS011;64907;51.574;6.502;2023-05-10T00:02:54;44.03;;;23.75;;
76157;SDS011;64907;51.574;6.502;2023-05-10T00:05:19;43.03;;;23.92;;
76157;SDS011;64907;51.574;6.502;2023-05-10T00:07:45;49.65;;;25.20;;
76157;SDS011;64907;51.574;6.502;2023-05-10T00:10:10;59.57;;;26.10;;
76157;SDS011;64907;51.574;6.502;2023-05-10T00:12:35;49.67;;;24.65;;
76157;SDS011;64907;51.574;6.502;2023-05-10T00:15:01;57.93;;;27.60;;
76157;SDS011;64907;51.574;6.502;2023-05-10T00:17:26;59.50;;;24.58;;
76157;SDS011;64907;51.574;6.502;2023-05-10T00:19:51;63.47;;;27.75;;
76157;SDS011;64907;51.574;6.502;2023-05-10T00:22:16;49.67;;;25.23;;
76157;SDS011;64907;51.574;6.502;2023-05-10T00:24:41;47.07;;;25.00;;
76157;SDS011;64907;51.574;6.502;2023-05-10T00:27:06;43.50;;;23.43;;
76157;SDS011;64907;51.574;6.502;2023-05-10T00:29:32;52.38;;;24.63;;
76157;SDS011;64907;51.574;6.502;2023-05-10T00:32:01;48.47;;;24.55;;
76157;SDS011;64907;51.574;6.502;2023-05-10T00:34:29;44.53;;;22.98;;
76157;SDS011;64907;51.574;6.502;2023-05-10T00:36:56;61.88;;;26.55;;
76157;SDS011;64907;51.574;6.502;2023-05-10T00:39:21;52.08;;;23.90;;
76157;SDS011;64907;51.574;6.502;2023-05-10T00:41:46;44.45;;;24.15;;
76157;SDS011;64907;51.574;6.502;2023-05-10T00:44:12;53.23;;;24.60;;
76157;SDS011;64907;51.574;6.502;2023-05-10T00:46:39;50.05;;;24.60;;
76157;SDS011;64907;51.574;6.502;2023-05-10T00:49:04;49.03;;;23.48;;
76157;SDS011;64907;51.574;6.502;2023-05-10T00:51:30;52.17;;;25.77;;
76157;SDS011;64907;51.574;6.502;2023-05-10T00:53:56;44.65;;;23.50;;
76157;SDS011;64907;51.574;6.502;2023-05-10T00:58:53;55.28;;;24.02;;
76157;SDS011;64907;51.574;6.502;2023-05-10T01:01:19;49.20;;;24.77;;
76157;SDS011;64907;51.574;6.502;2023-05-10T01:03:44;56.67;;;25.20;;
76157;SDS011;64907;51.574;6.502;2023-05-10T01:08:45;58.33;;;26.52;;
76157;SDS011;64907;51.574;6.502;2023-05-10T01:11:10;49.70;;;25.73;;
76157;SDS011;64907;51.574;6.502;2023-05-10T01:13:38;63.65;;;28.08;;
76157;SDS011;64907;51.574;6.502;2023-05-10T01:16:13;68.05;;;27.92;;
76157;SDS011;64907;51.574;6.502;2023-05-10T01:18:39;60.38;;;27.88;;
76157;SDS011;64907;51.574;6.502;2023-05-10T01:23:45;79.95;;;29.42;;
76157;SDS011;64907;51.574;6.502;2023-05-10T01:26:39;72.28;;;29.63;;
76157;SDS011;64907;51.574;6.502;2023-05-10T01:34:36;71.72;;;29.02;;
76157;SDS011;64907;51.574;6.502;2023-05-10T01:37:07;79.95;;;29.88;;
76157;SDS011;64907;51.574;6.502;2023-05-10T01:39:49;81.72;;;30.55;;
76157;SDS011;64907;51.574;6.502;2023-05-10T01:42:17;85.65;;;29.98;;
76157;SDS011;64907;51.574;6.502;2023-05-10T01:47:38;77.18;;;30.60;;
76157;SDS011;64907;51.574;6.502;2023-05-10T01:50:02;79.88;;;30.90;;
76157;SDS011;64907;51.574;6.502;2023-05-10T01:52:30;82.53;;;32.08;;
76157;SDS011;64907;51.574;6.502;2023-05-10T01:57:27;78.13;;;31.35;;
76157;SDS011;64907;51.574;6.502;2023-05-10T01:59:56;74.88;;;31.50;;
76157;SDS011;64907;51.574;6.502;2023-05-10T02:02:22;72.70;;;30.70;;
76157;SDS011;64907;51.574;6.502;2023-05-10T02:04:57;84.18;;;31.15;;
76157;SDS011;64907;51.574;6.502;2023-05-10T02:07:23;78.22;;;31.83;;
76157;SDS011;64907;51.574;6.502;2023-05-10T02:09:48;69.78;;;31.83;;
76157;SDS011;64907;51.574;6.502;2023-05-10T02:12:14;80.45;;;32.72;;
76157;SDS011;64907;51.574;6.502;2023-05-10T02:14:40;81.15;;;31.95;;
76157;SDS011;64907;51.574;6.502;2023-05-10T02:17:07;79.18;;;30.50;;
76157;SDS011;64907;51.574;6.502;2023-05-10T02:19:33;74.88;;;31.67;;
76157;SDS011;64907;51.574;6.502;2023-05-10T02:21:59;83.50;;;32.85;;
76157;SDS011;64907;51.574;6.502;2023-05-10T02:24:25;72.43;;;30.20;;
76157;SDS011;64907;51.574;6.502;2023-05-10T02:26:51;73.65;;;30.85;;
76157;SDS011;64907;51.574;6.502;2023-05-10T02:29:18;71.93;;;29.90;;
76157;SDS011;64907;51.574;6.502;2023-05-10T02:31:43;73.97;;;31.60;;
76157;SDS011;64907;51.574;6.502;2023-05-10T02:34:09;75.20;;;31.35;;
76157;SDS011;64907;51.574;6.502;2023-05-10T02:36:35;86.32;;;30.98;;
76157;SDS011;64907;51.574;6.502;2023-05-10T02:39:00;74.47;;;30.08;;
76157;SDS011;64907;51.574;6.502;2023-05-10T02:41:26;75.88;;;30.55;;
76157;SDS011;64907;51.574;6.502;2023-05-10T02:43:52;75.13;;;30.77;;
76157;SDS011;64907;51.574;6.502;2023-05-10T02:46:19;73.00;;;31.20;;
76157;SDS011;64907;51.574;6.502;2023-05-10T02:48:45;73.40;;;31.83;;
76157;SDS011;64907;51.574;6.502;2023-05-10T02:51:16;89.13;;;35.58;;
76157;SDS011;64907;51.574;6.502;2023-05-10T02:53:43;79.20;;;31.90;;
76157;SDS011;64907;51.574;6.502;2023-05-10T02:56:11;64.70;;;30.00;;
76157;SDS011;64907;51.574;6.502;2023-05-10T02:58:38;74.93;;;31.77;;
76157;SDS011;64907;51.574;6.502;2023-05-10T03:01:03;70.18;;;31.00;;
76157;SDS011;64907;51.574;6.502;2023-05-10T03:03:28;78.40;;;32.55;;
76157;SDS011;64907;51.574;6.502;2023-05-10T03:05:53;79.10;;;32.37;;
76157;SDS011;64907;51.574;6.502;2023-05-10T03:08:22;75.97;;;31.02;;
76157;SDS011;64907;51.574;6.502;2023-05-10T03:10:51;78.68;;;31.48;;
76157;SDS011;64907;51.574;6.502;2023-05-10T03:13:35;82.97;;;34.97;;
76157;SDS011;64907;51.574;6.502;2023-05-10T03:16:06;70.25;;;30.55;;
76157;SDS011;64907;51.574;6.502;2023-05-10T03:21:04;77.90;;;33.97;;
76157;SDS011;64907;51.574;6.502;2023-05-10T03:25:58;78.90;;;35.25;;
76157;SDS011;64907;51.574;6.502;2023-05-10T03:28:24;79.88;;;31.83;;
76157;SDS011;64907;51.574;6.502;2023-05-10T03:30:50;72.80;;;31.35;;
76157;SDS011;64907;51.574;6.502;2023-05-10T03:33:19;82.70;;;32.42;;
76157;SDS011;64907;51.574;6.502;2023-05-10T03:35:45;78.55;;;32.70;;
76157;SDS011;64907;51.574;6.502;2023-05-10T03:38:11;64.78;;;29.73;;
76157;SDS011;64907;51.574;6.502;2023-05-10T03:40:36;73.47;;;32.78;;
76157;SDS011;64907;51.574;6.502;2023-05-10T03:43:02;80.90;;;35.10;;
76157;SDS011;64907;51.574;6.502;2023-05-10T03:45:27;82.32;;;36.58;;
76157;SDS011;64907;51.574;6.502;2023-05-10T03:47:53;88.57;;;37.72;;
76157;SDS011;64907;51.574;6.502;2023-05-10T03:50:18;89.30;;;36.35;;
76157;SDS011;64907;51.574;6.502;2023-05-10T03:52:51;89.10;;;36.00;;
76157;SDS011;64907;51.574;6.502;2023-05-10T03:55:16;95.18;;;38.42;;
76157;SDS011;64907;51.574;6.502;2023-05-10T03:57:41;82.68;;;35.10;;
76157;SDS011;64907;51.574;6.502;2023-05-10T04:00:07;91.07;;;37.15;;
76157;SDS011;64907;51.574;6.502;2023-05-10T04:02:41;86.18;;;35.83;;
76157;SDS011;64907;51.574;6.502;2023-05-10T04:05:06;95.40;;;37.92;;
76157;SDS011;64907;51.574;6.502;2023-05-10T04:07:31;85.80;;;38.03;;
76157;SDS011;64907;51.574;6.502;2023-05-10T04:09:57;85.37;;;37.53;;
76157;SDS011;64907;51.574;6.502;2023-05-10T04:12:22;85.13;;;37.15;;
76157;SDS011;64907;51.574;6.502;2023-05-10T04:14:47;87.15;;;38.58;;
76157;SDS011;64907;51.574;6.502;2023-05-10T04:17:12;94.53;;;39.55;;
76157;SDS011;64907;51.574;6.502;2023-05-10T04:19:37;87.30;;;36.87;;
76157;SDS011;64907;51.574;6.502;2023-05-10T04:22:03;97.00;;;40.65;;
76157;SDS011;64907;51.574;6.502;2023-05-10T04:24:28;101.03;;;45.80;;
76157;SDS011;64907;51.574;6.502;2023-05-10T04:26:54;95.13;;;40.60;;
76157;SDS011;64907;51.574;6.502;2023-05-10T04:29:19;97.00;;;42.13;;
76157;SDS011;64907;51.574;6.502;2023-05-10T04:31:44;78.27;;;37.23;;
76157;SDS011;64907;51.574;6.502;2023-05-10T04:34:09;92.05;;;39.33;;
76157;SDS011;64907;51.574;6.502;2023-05-10T04:36:34;101.37;;;41.47;;
76157;SDS011;64907;51.574;6.502;2023-05-10T04:39:01;93.78;;;40.80;;
76157;SDS011;64907;51.574;6.502;2023-05-10T04:41:28;110.65;;;44.83;;
76157;SDS011;64907;51.574;6.502;2023-05-10T04:43:53;201.90;;;47.78;;
76157;SDS011;64907;51.574;6.502;2023-05-10T04:46:18;144.13;;;45.00;;
76157;SDS011;64907;51.574;6.502;2023-05-10T04:48:43;93.45;;;41.17;;
76157;SDS011;64907;51.574;6.502;2023-05-10T04:51:08;108.73;;;42.37;;
76157;SDS011;64907;51.574;6.502;2023-05-10T04:53:37;90.10;;;40.30;;
76157;SDS011;64907;51.574;6.502;2023-05-10T04:56:02;98.30;;;42.20;;
76157;SDS011;64907;51.574;6.502;2023-05-10T04:58:27;79.90;;;39.88;;
76157;SDS011;64907;51.574;6.502;2023-05-10T05:00:53;72.25;;;37.47;;
76157;SDS011;64907;51.574;6.502;2023-05-10T05:03:18;67.60;;;37.57;;
76157;SDS011;64907;51.574;6.502;2023-05-10T05:05:43;77.13;;;37.80;;
76157;SDS011;64907;51.574;6.502;2023-05-10T05:08:09;74.78;;;39.40;;
76157;SDS011;64907;51.574;6.502;2023-05-10T05:10:34;72.33;;;37.83;;
76157;SDS011;64907;51.574;6.502;2023-05-10T05:12:59;78.10;;;40.35;;
76157;SDS011;64907;51.574;6.502;2023-05-10T05:15:28;76.43;;;38.22;;
76157;SDS011;64907;51.574;6.502;2023-05-10T05:17:53;76.65;;;39.63;;
76157;SDS011;64907;51.574;6.502;2023-05-10T05:20:26;70.07;;;37.77;;
76157;SDS011;64907;51.574;6.502;2023-05-10T05:22:51;75.13;;;39.17;;
76157;SDS011;64907;51.574;6.502;2023-05-10T05:25:16;69.60;;;38.90;;
76157;SDS011;64907;51.574;6.502;2023-05-10T05:27:42;76.15;;;39.75;;
76157;SDS011;64907;51.574;6.502;2023-05-10T05:30:15;81.22;;;40.78;;
76157;SDS011;64907;51.574;6.502;2023-05-10T05:32:40;72.82;;;39.10;;
76157;SDS011;64907;51.574;6.502;2023-05-10T05:35:21;71.80;;;38.03;;
76157;SDS011;64907;51.574;6.502;2023-05-10T05:37:46;78.10;;;40.88;;
76157;SDS011;64907;51.574;6.502;2023-05-10T05:40:18;79.47;;;41.28;;
76157;SDS011;64907;51.574;6.502;2023-05-10T05:42:45;77.90;;;39.28;;
76157;SDS011;64907;51.574;6.502;2023-05-10T05:45:10;83.17;;;41.73;;
76157;SDS011;64907;51.574;6.502;2023-05-10T05:47:37;83.60;;;42.67;;
76157;SDS011;64907;51.574;6.502;2023-05-10T05:50:03;91.75;;;43.65;;
76157;SDS011;64907;51.574;6.502;2023-05-10T05:52:28;86.78;;;42.58;;
76157;SDS011;64907;51.574;6.502;2023-05-10T05:54:53;82.60;;;42.33;;
76157;SDS011;64907;51.574;6.502;2023-05-10T05:57:18;82.77;;;44.07;;
76157;SDS011;64907;51.574;6.502;2023-05-10T05:59:43;82.80;;;41.90;;
76157;SDS011;64907;51.574;6.502;2023-05-10T06:02:09;82.82;;;42.20;;
76157;SDS011;64907;51.574;6.502;2023-05-10T06:04:34;81.07;;;41.22;;
76157;SDS011;64907;51.574;6.502;2023-05-10T06:07:00;78.33;;;40.97;;
76157;SDS011;64907;51.574;6.502;2023-05-10T06:09:28;86.30;;;43.13;;
76157;SDS011;64907;51.574;6.502;2023-05-10T06:11:53;73.90;;;40.90;;
76157;SDS011;64907;51.574;6.502;2023-05-10T06:14:21;77.05;;;41.45;;
76157;SDS011;64907;51.574;6.502;2023-05-10T06:16:47;81.05;;;41.22;;
76157;SDS011;64907;51.574;6.502;2023-05-10T06:19:12;77.53;;;39.88;;
76157;SDS011;64907;51.574;6.502;2023-05-10T06:21:37;76.27;;;41.50;;
76157;SDS011;64907;51.574;6.502;2023-05-10T06:24:02;74.38;;;41.28;;
76157;SDS011;64907;51.574;6.502;2023-05-10T06:26:27;78.85;;;41.63;;
76157;SDS011;64907;51.574;6.502;2023-05-10T06:28:53;73.60;;;37.80;;
76157;SDS011;64907;51.574;6.502;2023-05-10T06:31:18;71.13;;;39.85;;
76157;SDS011;64907;51.574;6.502;2023-05-10T06:33:45;66.72;;;38.35;;
76157;SDS011;64907;51.574;6.502;2023-05-10T06:36:13;76.40;;;40.08;;
76157;SDS011;64907;51.574;6.502;2023-05-10T06:38:38;71.55;;;40.70;;
76157;SDS011;64907;51.574;6.502;2023-05-10T06:41:03;77.85;;;43.38;;
76157;SDS011;64907;51.574;6.502;2023-05-10T06:43:28;71.57;;;39.42;;
76157;SDS011;64907;51.574;6.502;2023-05-10T06:45:54;70.67;;;38.73;;
76157;SDS011;64907;51.574;6.502;2023-05-10T06:48:19;74.38;;;40.58;;
76157;SDS011;64907;51.574;6.502;2023-05-10T06:53:25;68.55;;;37.83;;
76157;SDS011;64907;51.574;6.502;2023-05-10T06:55:50;72.70;;;39.80;;
76157;SDS011;64907;51.574;6.502;2023-05-10T06:58:16;70.67;;;41.40;;
76157;SDS011;64907;51.574;6.502;2023-05-10T07:00:41;75.18;;;39.97;;
76157;SDS011;64907;51.574;6.502;2023-05-10T07:03:08;69.22;;;39.83;;
76157;SDS011;64907;51.574;6.502;2023-05-10T07:05:33;68.57;;;38.90;;
76157;SDS011;64907;51.574;6.502;2023-05-10T07:07:58;63.37;;;35.80;;
76157;SDS011;64907;51.574;6.502;2023-05-10T07:10:27;59.27;;;34.30;;
76157;SDS011;64907;51.574;6.502;2023-05-10T07:12:52;71.20;;;37.20;;
76157;SDS011;64907;51.574;6.502;2023-05-10T07:15:18;63.37;;;35.20;;
76157;SDS011;64907;51.574;6.502;2023-05-10T07:17:43;56.78;;;33.78;;
76157;SDS011;64907;51.574;6.502;2023-05-10T07:20:08;56.38;;;34.00;;
76157;SDS011;64907;51.574;6.502;2023-05-10T07:22:34;58.20;;;35.15;;
76157;SDS011;64907;51.574;6.502;2023-05-10T07:24:59;58.22;;;33.80;;
76157;SDS011;64907;51.574;6.502;2023-05-10T07:27:24;59.60;;;34.20;;
76157;SDS011;64907;51.574;6.502;2023-05-10T07:29:50;58.80;;;33.80;;
76157;SDS011;64907;51.574;6.502;2023-05-10T07:32:15;60.00;;;35.42;;
76157;SDS011;64907;51.574;6.502;2023-05-10T07:34:40;62.83;;;35.25;;
76157;SDS011;64907;51.574;6.502;2023-05-10T07:37:06;58.88;;;33.13;;
76157;SDS011;64907;51.574;6.502;2023-05-10T07:39:34;54.53;;;32.53;;
76157;SDS011;64907;51.574;6.502;2023-05-10T07:41:59;52.00;;;30.40;;
76157;SDS011;64907;51.574;6.502;2023-05-10T07:44:24;55.72;;;34.55;;
76157;SDS011;64907;51.574;6.502;2023-05-10T07:46:50;57.58;;;34.15;;
76157;SDS011;64907;51.574;6.502;2023-05-10T07:49:15;54.20;;;30.30;;
76157;SDS011;64907;51.574;6.502;2023-05-10T07:51:40;50.92;;;31.17;;
76157;SDS011;64907;51.574;6.502;2023-05-10T07:54:07;48.50;;;31.55;;
76157;SDS011;64907;51.574;6.502;2023-05-10T07:56:32;54.50;;;32.55;;
76157;SDS011;64907;51.574;6.502;2023-05-10T08:01:34;53.97;;;34.45;;
76157;SDS011;64907;51.574;6.502;2023-05-10T08:04:00;52.13;;;32.42;;
76157;SDS011;64907;51.574;6.502;2023-05-10T08:06:26;53.90;;;33.33;;
76157;SDS011;64907;51.574;6.502;2023-05-10T08:08:53;56.38;;;34.55;;
76157;SDS011;64907;51.574;6.502;2023-05-10T08:11:20;51.08;;;29.15;;
76157;SDS011;64907;51.574;6.502;2023-05-10T08:13:45;47.90;;;29.85;;
76157;SDS011;64907;51.574;6.502;2023-05-10T08:16:11;45.15;;;29.83;;
76157;SDS011;64907;51.574;6.502;2023-05-10T08:18:36;42.70;;;27.65;;
76157;SDS011;64907;51.574;6.502;2023-05-10T08:21:02;48.75;;;29.77;;
76157;SDS011;64907;51.574;6.502;2023-05-10T08:23:27;45.88;;;27.88;;
76157;SDS011;64907;51.574;6.502;2023-05-10T08:25:52;53.53;;;32.20;;
76157;SDS011;64907;51.574;6.502;2023-05-10T08:28:17;35.63;;;23.48;;
76157;SDS011;64907;51.574;6.502;2023-05-10T08:30:43;40.50;;;26.53;;
76157;SDS011;64907;51.574;6.502;2023-05-10T08:33:08;42.33;;;26.40;;
76157;SDS011;64907;51.574;6.502;2023-05-10T08:35:33;40.67;;;24.67;;
76157;SDS011;64907;51.574;6.502;2023-05-10T08:37:59;41.60;;;25.42;;
76157;SDS011;64907;51.574;6.502;2023-05-10T08:40:24;43.93;;;27.87;;
76157;SDS011;64907;51.574;6.502;2023-05-10T08:42:52;44.30;;;30.10;;
76157;SDS011;64907;51.574;6.502;2023-05-10T08:45:19;37.85;;;26.23;;
76157;SDS011;64907;51.574;6.502;2023-05-10T08:47:44;37.30;;;24.73;;
76157;SDS011;64907;51.574;6.502;2023-05-10T08:50:10;38.53;;;24.60;;
76157;SDS011;64907;51.574;6.502;2023-05-10T08:52:37;40.20;;;25.63;;
76157;SDS011;64907;51.574;6.502;2023-05-10T08:55:03;36.08;;;24.83;;
76157;SDS011;64907;51.574;6.502;2023-05-10T08:57:29;38.47;;;25.50;;
76157;SDS011;64907;51.574;6.502;2023-05-10T08:59:54;39.35;;;24.98;;
76157;SDS011;64907;51.574;6.502;2023-05-10T09:02:19;36.67;;;24.35;;
76157;SDS011;64907;51.574;6.502;2023-05-10T09:04:44;34.03;;;23.15;;
76157;SDS011;64907;51.574;6.502;2023-05-10T09:07:10;37.95;;;25.58;;
76157;SDS011;64907;51.574;6.502;2023-05-10T09:09:35;36.70;;;26.20;;
76157;SDS011;64907;51.574;6.502;2023-05-10T09:12:02;32.75;;;23.27;;
76157;SDS011;64907;51.574;6.502;2023-05-10T09:14:29;32.78;;;23.77;;
76157;SDS011;64907;51.574;6.502;2023-05-10T09:16:55;38.42;;;25.95;;
76157;SDS011;64907;51.574;6.502;2023-05-10T09:19:21;38.35;;;24.17;;
76157;SDS011;64907;51.574;6.502;2023-05-10T09:21:46;36.63;;;23.77;;
76157;SDS011;64907;51.574;6.502;2023-05-10T09:24:11;37.67;;;25.35;;
76157;SDS011;64907;51.574;6.502;2023-05-10T09:26:45;31.60;;;22.58;;
76157;SDS011;64907;51.574;6.502;2023-05-10T09:29:11;32.67;;;23.67;;
76157;SDS011;64907;51.574;6.502;2023-05-10T09:34:20;34.08;;;23.85;;
76157;SDS011;64907;51.574;6.502;2023-05-10T09:36:50;31.70;;;22.38;;
76157;SDS011;64907;51.574;6.502;2023-05-10T09:39:16;34.17;;;23.58;;
76157;SDS011;64907;51.574;6.502;2023-05-10T09:41:41;36.72;;;24.10;;
76157;SDS011;64907;51.574;6.502;2023-05-10T09:44:07;29.40;;;20.38;;
76157;SDS011;64907;51.574;6.502;2023-05-10T09:46:34;31.57;;;22.47;;
76157;SDS011;64907;51.574;6.502;2023-05-10T09:49:00;36.83;;;24.70;;
76157;SDS011;64907;51.574;6.502;2023-05-10T09:51:25;35.90;;;26.27;;
76157;SDS011;64907;51.574;6.502;2023-05-10T09:54:11;37.58;;;24.85;;
76157;SDS011;64907;51.574;6.502;2023-05-10T09:56:36;35.53;;;23.92;;
76157;SDS011;64907;51.574;6.502;2023-05-10T09:59:04;40.05;;;24.42;;
76157;SDS011;64907;51.574;6.502;2023-05-10T10:04:13;34.35;;;24.00;;
76157;SDS011;64907;51.574;6.502;2023-05-10T10:06:39;36.33;;;25.25;;
76157;SDS011;64907;51.574;6.502;2023-05-10T10:09:05;35.95;;;25.92;;
76157;SDS011;64907;51.574;6.502;2023-05-10T10:14:09;40.00;;;25.25;;
76157;SDS011;64907;51.574;6.502;2023-05-10T10:16:35;43.30;;;27.27;;
76157;SDS011;64907;51.574;6.502;2023-05-10T10:19:01;38.27;;;26.57;;
76157;SDS011;64907;51.574;6.502;2023-05-10T10:21:26;41.17;;;27.50;;
76157;SDS011;64907;51.574;6.502;2023-05-10T10:23:54;42.22;;;28.33;;
76157;SDS011;64907;51.574;6.502;2023-05-10T10:26:19;41.25;;;27.73;;
76157;SDS011;64907;51.574;6.502;2023-05-10T10:31:34;46.75;;;30.05;;
76157;SDS011;64907;51.574;6.502;2023-05-10T10:34:08;48.08;;;31.45;;
76157;SDS011;64907;51.574;6.502;2023-05-10T10:36:42;46.08;;;29.88;;
76157;SDS011;64907;51.574;6.502;2023-05-10T10:39:09;50.55;;;32.03;;
76157;SDS011;64907;51.574;6.502;2023-05-10T10:41:39;49.65;;;31.42;;
76157;SDS011;64907;51.574;6.502;2023-05-10T10:49:22;43.65;;;29.00;;
76157;SDS011;64907;51.574;6.502;2023-05-10T10:54:33;45.90;;;30.95;;
76157;SDS011;64907;51.574;6.502;2023-05-10T10:57:12;45.30;;;29.27;;
76157;SDS011;64907;51.574;6.502;2023-05-10T10:59:41;38.55;;;27.65;;
76157;SDS011;64907;51.574;6.502;2023-05-10T11:02:07;30.55;;;23.63;;
76157;SDS011;64907;51.574;6.502;2023-05-10T11:04:41;35.78;;;25.88;;
76157;SDS011;64907;51.574;6.502;2023-05-10T11:07:15;36.00;;;25.33;;
76157;SDS011;64907;51.574;6.502;2023-05-10T11:09:41;38.80;;;25.58;;
76157;SDS011;64907;51.574;6.502;2023-05-10T11:12:07;29.38;;;21.23;;
76157;SDS011;64907;51.574;6.502;2023-05-10T11:14:33;30.42;;;23.67;;
76157;SDS011;64907;51.574;6.502;2023-05-10T11:16:58;28.53;;;22.57;;
76157;SDS011;64907;51.574;6.502;2023-05-10T11:19:30;24.33;;;19.83;;
76157;SDS011;64907;51.574;6.502;2023-05-10T11:24:30;23.38;;;20.05;;
76157;SDS011;64907;51.574;6.502;2023-05-10T11:26:55;18.70;;;16.00;;
76157;SDS011;64907;51.574;6.502;2023-05-10T11:29:21;22.55;;;18.75;;
76157;SDS011;64907;51.574;6.502;2023-05-10T11:34:23;18.40;;;16.45;;
76157;SDS011;64907;51.574;6.502;2023-05-10T11:36:55;16.65;;;13.90;;
76157;SDS011;64907;51.574;6.502;2023-05-10T11:39:20;16.80;;;14.27;;
76157;SDS011;64907;51.574;6.502;2023-05-10T11:41:49;20.17;;;15.82;;
76157;SDS011;64907;51.574;6.502;2023-05-10T11:44:14;15.23;;;13.63;;
76157;SDS011;64907;51.574;6.502;2023-05-10T11:46:40;14.77;;;13.02;;
76157;SDS011;64907;51.574;6.502;2023-05-10T11:49:05;16.00;;;14.03;;
76157;SDS011;64907;51.574;6.502;2023-05-10T11:51:35;14.23;;;12.73;;
76157;SDS011;64907;51.574;6.502;2023-05-10T11:54:07;12.25;;;10.93;;
76157;SDS011;64907;51.574;6.502;2023-05-10T11:56:36;12.50;;;11.02;;
76157;SDS011;64907;51.574;6.502;2023-05-10T11:59:01;12.18;;;10.98;;
76157;SDS011;64907;51.574;6.502;2023-05-10T12:01:27;12.15;;;10.93;;
76157;SDS011;64907;51.574;6.502;2023-05-10T12:03:53;13.27;;;11.45;;
76157;SDS011;64907;51.574;6.502;2023-05-10T12:06:19;13.65;;;11.15;;
76157;SDS011;64907;51.574;6.502;2023-05-10T12:08:45;12.57;;;10.32;;
76157;SDS011;64907;51.574;6.502;2023-05-10T12:11:11;12.75;;;11.50;;
76157;SDS011;64907;51.574;6.502;2023-05-10T12:13:37;16.65;;;12.32;;
76157;SDS011;64907;51.574;6.502;2023-05-10T12:16:12;13.50;;;12.00;;
76157;SDS011;64907;51.574;6.502;2023-05-10T12:18:40;14.25;;;11.52;;
76157;SDS011;64907;51.574;6.502;2023-05-10T12:21:05;13.02;;;11.18;;
76157;SDS011;64907;51.574;6.502;2023-05-10T12:23:30;12.05;;;10.27;;
76157;SDS011;64907;51.574;6.502;2023-05-10T12:26:01;13.00;;;11.70;;
76157;SDS011;64907;51.574;6.502;2023-05-10T12:28:26;10.82;;;9.73;;
76157;SDS011;64907;51.574;6.502;2023-05-10T12:31:01;12.38;;;11.27;;
76157;SDS011;64907;51.574;6.502;2023-05-10T12:33:26;11.80;;;10.60;;
76157;SDS011;64907;51.574;6.502;2023-05-10T12:35:52;11.07;;;9.97;;
76157;SDS011;64907;51.574;6.502;2023-05-10T12:40:49;11.15;;;10.02;;
76157;SDS011;64907;51.574;6.502;2023-05-10T12:43:15;11.60;;;10.40;;
76157;SDS011;64907;51.574;6.502;2023-05-10T12:45:40;12.43;;;11.23;;
76157;SDS011;64907;51.574;6.502;2023-05-10T12:48:05;11.27;;;10.20;;
76157;SDS011;64907;51.574;6.502;2023-05-10T12:50:31;10.57;;;9.57;;
76157;SDS011;64907;51.574;6.502;2023-05-10T12:52:56;10.02;;;9.00;;
76157;SDS011;64907;51.574;6.502;2023-05-10T12:55:22;13.17;;;8.80;;
76157;SDS011;64907;51.574;6.502;2023-05-10T12:57:47;10.43;;;9.52;;
76157;SDS011;64907;51.574;6.502;2023-05-10T13:00:14;10.93;;;8.90;;
76157;SDS011;64907;51.574;6.502;2023-05-10T13:02:39;13.45;;;9.02;;
76157;SDS011;64907;51.574;6.502;2023-05-10T13:05:05;12.48;;;9.18;;
76157;SDS011;64907;51.574;6.502;2023-05-10T13:07:30;11.25;;;8.70;;
76157;SDS011;64907;51.574;6.502;2023-05-10T13:09:55;8.73;;;7.90;;
76157;SDS011;64907;51.574;6.502;2023-05-10T13:12:20;7.87;;;7.27;;
76157;SDS011;64907;51.574;6.502;2023-05-10T13:14:46;8.90;;;8.00;;
76157;SDS011;64907;51.574;6.502;2023-05-10T13:17:11;9.83;;;8.03;;
76157;SDS011;64907;51.574;6.502;2023-05-10T13:19:36;8.68;;;7.93;;
76157;SDS011;64907;51.574;6.502;2023-05-10T13:22:01;8.18;;;7.57;;
76157;SDS011;64907;51.574;6.502;2023-05-10T13:24:26;10.30;;;9.40;;
76157;SDS011;64907;51.574;6.502;2023-05-10T13:26:54;10.68;;;9.73;;
76157;SDS011;64907;51.574;6.502;2023-05-10T13:31:52;11.15;;;9.40;;
76157;SDS011;64907;51.574;6.502;2023-05-10T13:37:00;10.40;;;9.40;;
76157;SDS011;64907;51.574;6.502;2023-05-10T13:39:25;11.48;;;10.27;;
76157;SDS011;64907;51.574;6.502;2023-05-10T13:41:51;11.27;;;10.32;;
76157;SDS011;64907;51.574;6.502;2023-05-10T13:44:17;11.98;;;9.95;;
76157;SDS011;64907;51.574;6.502;2023-05-10T13:46:42;12.73;;;10.23;;
76157;SDS011;64907;51.574;6.502;2023-05-10T13:49:08;10.40;;;9.50;;
76157;SDS011;64907;51.574;6.502;2023-05-10T13:51:33;11.45;;;10.40;;
76157;SDS011;64907;51.574;6.502;2023-05-10T13:53:59;10.88;;;9.93;;
76157;SDS011;64907;51.574;6.502;2023-05-10T13:56:27;11.63;;;10.73;;
76157;SDS011;64907;51.574;6.502;2023-05-10T13:58:52;12.43;;;11.32;;
76157;SDS011;64907;51.574;6.502;2023-05-10T14:03:47;12.93;;;11.82;;
76157;SDS011;64907;51.574;6.502;2023-05-10T14:06:12;13.70;;;12.35;;
76157;SDS011;64907;51.574;6.502;2023-05-10T14:08:38;12.63;;;11.63;;
76157;SDS011;64907;51.574;6.502;2023-05-10T14:11:03;14.45;;;12.52;;
76157;SDS011;64907;51.574;6.502;2023-05-10T14:13:28;13.95;;;12.70;;
76157;SDS011;64907;51.574;6.502;2023-05-10T14:15:53;13.75;;;12.55;;
76157;SDS011;64907;51.574;6.502;2023-05-10T14:18:19;17.42;;;13.77;;
76157;SDS011;64907;51.574;6.502;2023-05-10T14:20:44;16.13;;;14.45;;
76157;SDS011;64907;51.574;6.502;2023-05-10T14:23:09;14.82;;;13.15;;
76157;SDS011;64907;51.574;6.502;2023-05-10T14:25:35;14.27;;;12.87;;
76157;SDS011;64907;51.574;6.502;2023-05-10T14:28:00;13.02;;;11.88;;
76157;SDS011;64907;51.574;6.502;2023-05-10T14:30:25;5.72;;;5.18;;
76157;SDS011;64907;51.574;6.502;2023-05-10T14:32:51;5.07;;;3.10;;
76157;SDS011;64907;51.574;6.502;2023-05-10T14:35:18;3.00;;;2.80;;
76157;SDS011;64907;51.574;6.502;2023-05-10T14:37:46;2.35;;;2.25;;
76157;SDS011;64907;51.574;6.502;2023-05-10T14:40:12;2.80;;;1.60;;
76157;SDS011;64907;51.574;6.502;2023-05-10T14:42:37;1.73;;;1.50;;
76157;SDS011;64907;51.574;6.502;2023-05-10T14:45:03;1.20;;;1.20;;
76157;SDS011;64907;51.574;6.502;2023-05-10T14:47:29;1.80;;;1.70;;
76157;SDS011;64907;51.574;6.502;2023-05-10T14:49:54;1.92;;;1.90;;
76157;SDS011;64907;51.574;6.502;2023-05-10T14:52:20;1.87;;;1.87;;
76157;SDS011;64907;51.574;6.502;2023-05-10T14:54:45;2.53;;;2.03;;
76157;SDS011;64907;51.574;6.502;2023-05-10T14:57:11;2.78;;;2.58;;
76157;SDS011;64907;51.574;6.502;2023-05-10T14:59:36;3.37;;;3.13;;
76157;SDS011;64907;51.574;6.502;2023-05-10T15:02:01;5.88;;;5.45;;
76157;SDS011;64907;51.574;6.502;2023-05-10T15:04:26;4.85;;;4.55;;
76157;SDS011;64907;51.574;6.502;2023-05-10T15:06:52;5.68;;;5.28;;
76157;SDS011;64907;51.574;6.502;2023-05-10T15:09:17;5.80;;;5.30;;
76157;SDS011;64907;51.574;6.502;2023-05-10T15:11:42;7.97;;;7.17;;
76157;SDS011;64907;51.574;6.502;2023-05-10T15:14:09;9.00;;;8.20;;
76157;SDS011;64907;51.574;6.502;2023-05-10T15:16:41;9.90;;;9.02;;
76157;SDS011;64907;51.574;6.502;2023-05-10T15:19:06;15.43;;;10.18;;
76157;SDS011;64907;51.574;6.502;2023-05-10T15:21:34;13.40;;;12.00;;